createdAt,value
2023-06-08T00:01:41.103Z,15.83
2023-06-08T00:04:12.459Z,16.48
2023-06-08T00:06:43.766Z,15.00
2023-06-08T00:09:15.352Z,14.93
2023-06-08T00:11:47.315Z,14.90
2023-06-08T00:14:19.691Z,13.62
2023-06-08T00:16:53.877Z,13.48
2023-06-08T00:19:26.435Z,12.45
2023-06-08T00:21:59.055Z,12.10
2023-06-08T00:24:30.363Z,11.88
2023-06-08T00:27:02.876Z,11.03
2023-06-08T00:29:36.172Z,11.93
2023-06-08T00:32:07.385Z,10.55
2023-06-08T00:34:38.803Z,11.10
2023-06-08T00:37:10.151Z,11.95
2023-06-08T00:39:41.370Z,11.20
2023-06-08T00:42:15.735Z,10.58
2023-06-08T00:44:46.938Z,10.60
2023-06-08T00:47:18.996Z,8.88
2023-06-08T00:49:51.398Z,8.25
2023-06-08T00:52:24.460Z,9.58
2023-06-08T00:54:56.847Z,9.73
2023-06-08T00:57:30.345Z,8.73
2023-06-08T01:00:05.605Z,9.60
2023-06-08T01:02:38.228Z,9.63
2023-06-08T01:05:10.350Z,9.80
2023-06-08T01:08:04.811Z,10.38
2023-06-08T01:10:38.625Z,9.00
2023-06-08T01:13:15.418Z,10.23
2023-06-08T01:18:19.913Z,9.28
2023-06-08T01:21:14.951Z,9.18
2023-06-08T01:23:54.606Z,9.70
2023-06-08T01:26:28.296Z,8.00
2023-06-08T01:28:59.755Z,9.23
2023-06-08T01:31:31.320Z,9.40
2023-06-08T01:34:02.601Z,10.30
2023-06-08T01:36:45.466Z,8.70
2023-06-08T01:39:52.315Z,8.40
2023-06-08T01:42:25.269Z,10.48
2023-06-08T01:45:13.797Z,8.95
2023-06-08T01:47:50.226Z,8.83
2023-06-08T01:50:23.194Z,9.30
2023-06-08T01:52:54.686Z,8.40
2023-06-08T01:55:26.820Z,9.40
2023-06-08T01:57:58.820Z,8.43
2023-06-08T02:00:30.118Z,10.93
2023-06-08T02:03:01.537Z,9.85
2023-06-08T02:05:33.956Z,13.38
2023-06-08T02:08:05.252Z,10.32
2023-06-08T02:10:36.791Z,7.33
2023-06-08T02:13:08.018Z,8.30
2023-06-08T02:15:42.571Z,9.70
2023-06-08T02:18:13.685Z,7.50
2023-06-08T02:20:44.902Z,8.63
2023-06-08T02:23:18.241Z,8.23
2023-06-08T02:25:49.512Z,8.95
2023-06-08T02:28:20.801Z,8.70
2023-06-08T02:30:53.037Z,8.98
2023-06-08T02:33:25.604Z,8.63
2023-06-08T02:35:57.097Z,9.25
2023-06-08T02:38:29.353Z,8.35
2023-06-08T02:41:03.673Z,9.23
2023-06-08T02:43:34.917Z,8.85
2023-06-08T02:46:06.341Z,9.13
2023-06-08T02:48:40.654Z,9.40
2023-06-08T02:51:11.998Z,7.80
2023-06-08T02:53:47.053Z,9.10
2023-06-08T02:56:18.415Z,13.32
2023-06-08T02:58:49.559Z,6.92
2023-06-08T03:01:22.260Z,7.10
2023-06-08T03:03:59.931Z,8.95
2023-06-08T03:06:32.802Z,6.58
2023-06-08T03:09:04.183Z,7.58
2023-06-08T03:11:36.558Z,6.78
2023-06-08T03:14:07.975Z,6.87
2023-06-08T03:16:39.525Z,8.18
2023-06-08T03:19:10.760Z,7.47
2023-06-08T03:21:43.555Z,8.33
2023-06-08T03:24:17.956Z,6.72
2023-06-08T03:27:08.735Z,8.90
2023-06-08T03:29:39.999Z,6.65
2023-06-08T03:32:11.464Z,6.95
2023-06-08T03:34:43.201Z,6.78
2023-06-08T03:37:14.526Z,6.45
2023-06-08T03:39:45.638Z,6.50
2023-06-08T03:42:17.069Z,7.70
2023-06-08T03:44:48.320Z,7.25
2023-06-08T03:47:20.578Z,7.33
2023-06-08T03:49:51.756Z,8.03
2023-06-08T03:52:23.181Z,9.68
2023-06-08T03:54:56.667Z,8.90
2023-06-08T03:57:28.274Z,7.17
2023-06-08T03:59:59.630Z,7.40
2023-06-08T04:02:31.085Z,8.35
2023-06-08T04:05:02.514Z,7.80
2023-06-08T04:07:37.080Z,7.50
2023-06-08T04:10:09.184Z,8.03
2023-06-08T04:12:40.546Z,8.05
2023-06-08T04:15:13.395Z,7.95
2023-06-08T04:17:50.850Z,6.95
2023-06-08T04:20:21.391Z,7.40
2023-06-08T04:22:54.594Z,8.00
2023-06-08T04:25:26.691Z,8.15
2023-06-08T04:28:01.702Z,7.87
2023-06-08T04:30:34.477Z,7.10
2023-06-08T04:33:07.386Z,8.63
2023-06-08T04:35:43.491Z,7.95
2023-06-08T04:38:21.566Z,8.33
2023-06-08T04:40:58.602Z,7.85
2023-06-08T04:43:30.492Z,6.78
2023-06-08T04:46:02.192Z,7.25
2023-06-08T04:48:35.823Z,6.97
2023-06-08T04:51:09.147Z,7.33
2023-06-08T04:53:46.745Z,7.35
2023-06-08T04:56:19.120Z,7.17
2023-06-08T04:58:50.507Z,8.10
2023-06-08T05:01:24.798Z,6.53
2023-06-08T05:03:56.332Z,7.45
2023-06-08T05:06:27.775Z,8.30
2023-06-08T05:08:59.374Z,8.23
2023-06-08T05:11:33.536Z,6.22
2023-06-08T05:14:07.897Z,7.20
2023-06-08T05:16:39.813Z,6.67
2023-06-08T05:19:11.225Z,7.53
2023-06-08T05:21:45.315Z,6.28
2023-06-08T05:24:16.912Z,7.28
2023-06-08T05:26:49.891Z,7.03
2023-06-08T05:29:21.383Z,7.08
2023-06-08T05:31:52.716Z,7.28
2023-06-08T05:34:23.986Z,6.92
2023-06-08T05:36:58.928Z,7.12
2023-06-08T05:39:30.363Z,6.97
2023-06-08T05:42:01.624Z,7.03
2023-06-08T05:44:33.124Z,6.42
2023-06-08T05:47:07.135Z,7.30
2023-06-08T05:49:38.521Z,6.72
2023-06-08T05:52:10.104Z,7.00
2023-06-08T05:54:41.472Z,6.95
2023-06-08T05:57:15.348Z,7.30
2023-06-08T05:59:49.324Z,7.45
2023-06-08T06:02:25.712Z,6.45
2023-06-08T06:07:29.586Z,6.65
2023-06-08T06:10:00.832Z,7.62
2023-06-08T06:12:32.153Z,6.50
2023-06-08T06:15:03.805Z,7.17
2023-06-08T06:17:35.448Z,7.12
2023-06-08T06:20:16.061Z,7.75
2023-06-08T06:22:55.341Z,6.72
2023-06-08T06:25:28.532Z,6.70
2023-06-08T06:27:59.819Z,7.03
2023-06-08T06:30:31.249Z,6.45
2023-06-08T06:33:05.154Z,7.20
2023-06-08T06:35:36.682Z,8.15
2023-06-08T06:38:10.862Z,7.22
2023-06-08T06:40:42.243Z,8.08
2023-06-08T06:43:13.654Z,7.90
2023-06-08T06:45:44.923Z,9.93
2023-06-08T06:48:16.385Z,7.95
2023-06-08T06:50:47.910Z,7.65
2023-06-08T06:53:19.462Z,7.40
2023-06-08T06:55:52.888Z,7.97
2023-06-08T06:58:24.999Z,6.92
2023-06-08T07:00:58.560Z,7.62
2023-06-08T07:03:32.025Z,7.25
2023-06-08T07:06:03.279Z,7.08
2023-06-08T07:08:34.811Z,7.05
2023-06-08T07:11:06.083Z,7.03
2023-06-08T07:13:37.750Z,8.15
2023-06-08T07:16:10.953Z,7.75
2023-06-08T07:18:42.047Z,7.72
2023-06-08T07:27:06.505Z,7.75
2023-06-08T07:29:38.223Z,6.47
2023-06-08T07:32:10.377Z,6.37
2023-06-08T07:34:41.625Z,8.73
2023-06-08T07:37:19.372Z,7.00
2023-06-08T07:42:19.514Z,6.60
2023-06-08T07:44:53.474Z,6.85
2023-06-08T07:47:24.813Z,7.97
2023-06-08T07:49:56.228Z,8.00
2023-06-08T07:52:27.565Z,6.25
2023-06-08T07:55:00.276Z,7.22
2023-06-08T07:57:33.302Z,6.80
2023-06-08T08:00:06.337Z,6.67
2023-06-08T08:02:37.926Z,5.95
2023-06-08T08:05:11.256Z,6.60
2023-06-08T08:07:43.047Z,6.30
2023-06-08T08:10:14.522Z,6.60
2023-06-08T08:12:49.967Z,6.22
2023-06-08T08:15:21.304Z,6.62
2023-06-08T08:17:55.625Z,6.83
2023-06-08T08:20:28.617Z,7.25
2023-06-08T08:23:00.105Z,7.33
2023-06-08T08:25:31.300Z,8.35
2023-06-08T08:28:03.968Z,6.80
2023-06-08T08:30:35.333Z,6.45
2023-06-08T08:33:10.411Z,6.78
2023-06-08T08:35:41.778Z,6.75
2023-06-08T08:38:51.855Z,6.65
2023-06-08T08:40:47.759Z,6.70
2023-06-08T08:43:28.024Z,9.13
2023-06-08T08:46:01.608Z,7.30
2023-06-08T08:48:35.652Z,7.08
2023-06-08T08:51:11.729Z,10.53
2023-06-08T08:53:43.583Z,6.53
2023-06-08T08:56:16.939Z,7.62
2023-06-08T08:58:50.419Z,9.03
2023-06-08T09:01:25.223Z,7.85
2023-06-08T09:03:56.724Z,7.45
2023-06-08T09:06:31.150Z,8.38
2023-06-08T09:09:02.377Z,7.75
2023-06-08T09:11:35.177Z,6.85
2023-06-08T09:14:13.098Z,7.17
2023-06-08T09:16:45.858Z,8.55
2023-06-08T09:19:18.869Z,9.03
2023-06-08T09:21:50.523Z,8.53
2023-06-08T09:24:24.277Z,6.85
2023-06-08T09:26:58.322Z,8.13
2023-06-08T09:29:49.245Z,7.08
2023-06-08T09:32:20.855Z,6.75
2023-06-08T09:34:54.628Z,6.80
2023-06-08T09:37:31.627Z,7.03
2023-06-08T09:40:07.944Z,9.35
2023-06-08T09:42:51.111Z,9.53
2023-06-08T09:45:23.638Z,8.13
2023-06-08T09:47:57.830Z,6.90
2023-06-08T09:50:30.176Z,6.60
2023-06-08T09:53:01.956Z,6.70
2023-06-08T09:55:39.890Z,7.50
2023-06-08T09:58:11.825Z,7.75
2023-06-08T10:00:46.087Z,7.05
2023-06-08T10:03:24.156Z,8.13
2023-06-08T10:05:56.349Z,7.87
2023-06-08T10:08:30.127Z,7.87
2023-06-08T10:11:02.677Z,7.35
2023-06-08T10:13:37.891Z,7.72
2023-06-08T10:16:10.894Z,10.48
2023-06-08T10:18:43.291Z,7.47
2023-06-08T10:21:15.983Z,7.37
2023-06-08T10:23:48.373Z,6.65
2023-06-08T10:26:21.350Z,6.12
2023-06-08T10:29:22.308Z,6.85
2023-06-08T10:31:48.269Z,6.22
2023-06-08T10:34:20.102Z,6.22
2023-06-08T10:36:51.899Z,6.58
2023-06-08T10:39:23.619Z,6.70
2023-06-08T10:42:00.018Z,7.28
2023-06-08T10:44:40.152Z,7.70
2023-06-08T10:47:12.210Z,8.75
2023-06-08T10:49:48.516Z,8.10
2023-06-08T10:55:02.489Z,9.68
2023-06-08T10:57:54.194Z,8.65
2023-06-08T11:00:34.670Z,8.35
2023-06-08T11:03:10.161Z,7.62
2023-06-08T11:05:44.074Z,7.17
2023-06-08T11:08:15.744Z,8.30
2023-06-08T11:10:49.947Z,8.30
2023-06-08T11:13:21.457Z,7.60
2023-06-08T11:15:53.013Z,8.58
2023-06-08T11:18:24.639Z,8.18
2023-06-08T11:20:57.620Z,7.80
2023-06-08T11:23:29.437Z,8.35
2023-06-08T11:26:00.689Z,8.58
2023-06-08T11:28:31.972Z,8.25
2023-06-08T11:31:05.641Z,7.90
2023-06-08T11:33:36.991Z,8.30
2023-06-08T11:36:08.956Z,7.87
2023-06-08T11:38:41.103Z,8.63
2023-06-08T11:41:13.985Z,8.30
2023-06-08T11:43:45.709Z,8.10
2023-06-08T11:46:17.851Z,8.30
2023-06-08T11:48:49.932Z,9.05
2023-06-08T11:51:21.453Z,9.80
2023-06-08T11:53:55.755Z,10.18
2023-06-08T11:56:28.425Z,8.55
2023-06-08T11:59:01.015Z,9.05
2023-06-08T12:01:35.018Z,8.35
2023-06-08T12:04:13.517Z,8.73
2023-06-08T12:06:44.720Z,8.80
2023-06-08T12:09:15.898Z,9.68
2023-06-08T12:11:47.741Z,9.85
2023-06-08T12:14:20.737Z,9.03
2023-06-08T12:16:53.456Z,8.23
2023-06-08T12:19:27.392Z,8.20
2023-06-08T12:22:00.742Z,7.12
2023-06-08T12:24:32.998Z,8.33
2023-06-08T12:27:07.617Z,7.95
2023-06-08T12:29:42.091Z,7.75
2023-06-08T12:32:13.692Z,7.15
2023-06-08T12:34:45.033Z,7.75
2023-06-08T12:37:16.252Z,7.20
2023-06-08T12:39:47.433Z,6.67
2023-06-08T12:42:20.724Z,7.25
2023-06-08T12:44:53.541Z,7.62
2023-06-08T12:47:24.884Z,7.42
2023-06-08T12:49:56.737Z,7.08
2023-06-08T12:52:29.541Z,6.97
2023-06-08T12:55:00.964Z,7.60
2023-06-08T12:57:35.564Z,6.30
2023-06-08T13:00:10.054Z,6.60
2023-06-08T13:02:44.258Z,6.55
2023-06-08T13:05:16.940Z,6.60
2023-06-08T13:07:54.908Z,6.42
2023-06-08T13:10:26.194Z,6.40
2023-06-08T13:13:02.240Z,9.63
2023-06-08T13:15:34.011Z,6.70
2023-06-08T13:18:05.771Z,7.12
2023-06-08T13:20:37.582Z,7.28
2023-06-08T13:23:11.225Z,7.95
2023-06-08T13:25:45.295Z,7.00
2023-06-08T13:28:16.935Z,7.33
2023-06-08T13:30:48.298Z,6.95
2023-06-08T13:33:19.691Z,7.55
2023-06-08T13:35:51.260Z,7.00
2023-06-08T13:38:22.554Z,6.35
2023-06-08T13:40:54.181Z,6.78
2023-06-08T13:43:27.189Z,6.87
2023-06-08T13:45:59.309Z,6.90
2023-06-08T13:48:32.514Z,6.53
2023-06-08T13:51:04.018Z,6.35
2023-06-08T13:53:36.270Z,6.75
2023-06-08T13:56:07.742Z,5.87
2023-06-08T13:58:39.075Z,6.55
2023-06-08T14:01:10.232Z,6.80
2023-06-08T14:03:41.961Z,6.22
2023-06-08T14:06:14.147Z,6.58
2023-06-08T14:08:45.640Z,6.53
2023-06-08T14:11:16.838Z,7.42
2023-06-08T14:13:48.346Z,6.90
2023-06-08T14:16:22.031Z,6.65
2023-06-08T14:18:53.484Z,6.95
2023-06-08T14:21:25.124Z,6.30
2023-06-08T14:23:57.472Z,7.17
2023-06-08T14:26:28.982Z,7.22
2023-06-08T14:29:02.050Z,7.45
2023-06-08T14:31:33.317Z,6.95
2023-06-08T14:34:04.883Z,7.25
2023-06-08T14:36:36.296Z,7.17
2023-06-08T14:39:09.891Z,7.95
2023-06-08T14:41:42.704Z,8.23
2023-06-08T14:44:14.040Z,8.23
2023-06-08T14:46:48.204Z,8.03
2023-06-08T14:49:20.810Z,8.10
2023-06-08T14:51:52.360Z,8.38
2023-06-08T14:54:23.952Z,8.13
2023-06-08T14:56:55.110Z,7.58
2023-06-08T14:59:26.515Z,7.75
2023-06-08T15:02:01.663Z,8.00
2023-06-08T15:04:32.984Z,7.30
2023-06-08T15:07:04.226Z,7.53
2023-06-08T15:09:35.611Z,7.12
2023-06-08T15:12:10.537Z,6.70
2023-06-08T15:14:41.883Z,7.08
2023-06-08T15:17:13.735Z,6.58
2023-06-08T15:19:45.447Z,6.87
2023-06-08T15:22:16.975Z,6.35
2023-06-08T15:24:48.351Z,6.50
2023-06-08T15:27:19.821Z,6.35
2023-06-08T15:29:51.676Z,6.40
2023-06-08T15:32:27.509Z,6.25
2023-06-08T15:34:58.717Z,5.80
2023-06-08T15:37:33.768Z,5.62
2023-06-08T15:40:06.020Z,6.78
2023-06-08T15:42:38.905Z,6.25
2023-06-08T15:45:52.072Z,6.28
2023-06-08T15:48:24.156Z,6.62
2023-06-08T15:50:58.479Z,6.45
2023-06-08T15:53:31.381Z,6.87
2023-06-08T15:56:12.934Z,7.33
2023-06-08T15:58:39.228Z,7.53
2023-06-08T16:01:14.242Z,7.25
2023-06-08T16:03:46.150Z,7.30
2023-06-08T16:06:29.726Z,7.20
2023-06-08T16:09:03.889Z,7.75
2023-06-08T16:11:36.758Z,7.50
2023-06-08T16:14:09.645Z,7.30
2023-06-08T16:16:44.823Z,7.92
2023-06-08T16:19:19.284Z,7.28
2023-06-08T16:21:53.149Z,7.45
2023-06-08T16:24:33.923Z,7.60
2023-06-08T16:27:03.000Z,7.45
2023-06-08T16:29:36.261Z,7.33
2023-06-08T16:32:09.641Z,7.87
2023-06-08T16:34:40.838Z,7.30
2023-06-08T16:37:14.135Z,8.75
2023-06-08T16:40:04.380Z,8.23
2023-06-08T16:42:39.448Z,7.90
2023-06-08T16:45:19.534Z,7.97
2023-06-08T16:47:54.114Z,8.48
2023-06-08T16:50:26.808Z,9.18
2023-06-08T16:52:58.645Z,8.33
2023-06-08T16:55:32.989Z,9.53
2023-06-08T16:58:04.218Z,10.30
2023-06-08T17:00:42.312Z,9.85
2023-06-08T17:03:22.049Z,8.88
2023-06-08T17:06:00.108Z,9.40
2023-06-08T17:08:33.816Z,9.90
2023-06-08T17:11:09.462Z,9.95
2023-06-08T17:13:42.339Z,10.63
2023-06-08T17:17:03.299Z,10.15
2023-06-08T17:18:52.423Z,11.40
2023-06-08T17:21:24.202Z,9.93
2023-06-08T17:23:58.308Z,10.58
2023-06-08T17:26:29.628Z,9.58
2023-06-08T17:29:00.976Z,9.73
2023-06-08T17:31:32.354Z,10.20
2023-06-08T17:34:03.551Z,9.88
2023-06-08T17:36:37.541Z,10.88
2023-06-08T17:39:08.872Z,10.03
2023-06-08T17:41:40.363Z,9.65
2023-06-08T17:44:16.382Z,9.80
2023-06-08T17:46:47.398Z,9.80
2023-06-08T17:49:20.354Z,10.68
2023-06-08T17:51:51.778Z,9.03
2023-06-08T17:54:22.941Z,10.88
2023-06-08T17:56:54.158Z,10.00
2023-06-08T17:59:25.495Z,10.10
2023-06-08T18:01:56.881Z,10.13
2023-06-08T18:04:28.441Z,9.88
2023-06-08T18:06:59.809Z,9.93
2023-06-08T18:09:31.115Z,9.55
2023-06-08T18:12:02.477Z,10.55
2023-06-08T18:14:33.716Z,10.32
2023-06-08T18:17:06.358Z,10.23
2023-06-08T18:19:38.774Z,10.03
2023-06-08T18:22:10.102Z,10.95
2023-06-08T18:24:42.483Z,10.08
2023-06-08T18:27:14.195Z,10.35
2023-06-08T18:29:45.508Z,10.50
2023-06-08T18:32:16.723Z,9.93
2023-06-08T18:34:47.733Z,10.23
2023-06-08T18:37:18.971Z,10.95
2023-06-08T18:39:58.753Z,10.43
2023-06-08T18:42:25.558Z,11.85
2023-06-08T18:45:00.073Z,11.00
2023-06-08T18:47:34.814Z,10.88
2023-06-08T18:50:08.542Z,11.60
2023-06-08T18:52:38.802Z,11.53
2023-06-08T18:55:11.578Z,10.68
2023-06-08T18:57:42.921Z,11.55
2023-06-08T19:00:17.048Z,11.25
2023-06-08T19:02:48.289Z,12.00
2023-06-08T19:05:19.753Z,12.10
2023-06-08T19:07:51.097Z,11.35
2023-06-08T19:10:22.740Z,10.75
2023-06-08T19:12:56.289Z,11.50
2023-06-08T19:15:27.639Z,11.40
2023-06-08T19:17:59.199Z,11.08
2023-06-08T19:20:30.742Z,11.40
2023-06-08T19:23:02.154Z,11.73
2023-06-08T19:25:33.882Z,11.43
2023-06-08T19:28:05.256Z,11.73
2023-06-08T19:30:36.495Z,11.28
2023-06-08T19:33:08.525Z,11.38
2023-06-08T19:35:39.911Z,11.33
2023-06-08T19:38:11.260Z,10.43
2023-06-08T19:40:45.680Z,11.90
2023-06-08T19:43:18.773Z,11.73
2023-06-08T19:45:50.150Z,11.12
2023-06-08T19:48:21.732Z,11.12
2023-06-08T19:50:53.108Z,11.73
2023-06-08T19:53:24.290Z,11.90
2023-06-08T19:55:55.570Z,11.73
2023-06-08T19:58:27.203Z,11.95
2023-06-08T20:00:58.435Z,11.73
2023-06-08T20:03:29.795Z,11.03
2023-06-08T20:06:01.103Z,11.75
2023-06-08T20:08:33.382Z,11.20
2023-06-08T20:11:06.171Z,11.45
2023-06-08T20:13:37.853Z,11.33
2023-06-08T20:16:09.103Z,11.75
2023-06-08T20:18:40.576Z,12.00
2023-06-08T20:21:12.318Z,10.45
2023-06-08T20:23:43.650Z,11.25
2023-06-08T20:26:14.976Z,10.85
2023-06-08T20:28:48.783Z,10.82
2023-06-08T20:31:20.373Z,10.63
2023-06-08T20:33:51.756Z,11.33
2023-06-08T20:36:23.442Z,11.08
2023-06-08T20:38:54.616Z,11.35
2023-06-08T20:41:26.150Z,10.90
2023-06-08T20:43:57.399Z,11.38
2023-06-08T20:46:29.353Z,11.50
2023-06-08T20:49:02.233Z,12.30
2023-06-08T20:51:35.349Z,11.65
2023-06-08T20:54:09.955Z,11.40
2023-06-08T20:56:41.311Z,11.57
2023-06-08T20:59:14.800Z,11.60
2023-06-08T21:01:46.382Z,11.38
2023-06-08T21:04:19.526Z,11.43
2023-06-08T21:06:52.204Z,11.53
2023-06-08T21:09:23.572Z,11.28
2023-06-08T21:11:56.008Z,11.78
2023-06-08T21:14:29.168Z,12.23
2023-06-08T21:17:00.713Z,11.80
2023-06-08T21:19:32.063Z,12.13
2023-06-08T21:22:03.312Z,12.55
2023-06-08T21:24:34.557Z,12.15
2023-06-08T21:27:05.997Z,11.90
2023-06-08T21:29:37.239Z,11.50
2023-06-08T21:32:08.889Z,11.93
2023-06-08T21:34:40.312Z,11.90
2023-06-08T21:37:11.694Z,11.83
2023-06-08T21:39:42.877Z,11.63
2023-06-08T21:42:15.513Z,12.10
2023-06-08T21:44:46.639Z,11.70
2023-06-08T21:47:18.010Z,12.58
2023-06-08T21:49:49.263Z,11.55
2023-06-08T21:52:20.745Z,11.45
2023-06-08T21:54:53.997Z,12.35
2023-06-08T21:57:25.145Z,11.95
2023-06-08T21:59:56.487Z,12.00
2023-06-08T22:02:27.736Z,11.68
2023-06-08T22:04:59.153Z,11.97
2023-06-08T22:07:30.553Z,11.90
2023-06-08T22:10:01.988Z,13.25
2023-06-08T22:12:33.254Z,12.18
2023-06-08T22:15:06.037Z,12.00
2023-06-08T22:17:37.620Z,12.23
2023-06-08T22:20:10.793Z,11.33
2023-06-08T22:22:42.107Z,12.03
2023-06-08T22:25:13.555Z,11.57
2023-06-08T22:27:46.822Z,12.50
2023-06-08T22:30:18.404Z,12.73
2023-06-08T22:32:49.712Z,12.43
2023-06-08T22:35:20.974Z,12.60
2023-06-08T22:37:52.700Z,12.35
2023-06-08T22:40:24.126Z,11.75
2023-06-08T22:42:55.354Z,12.68
2023-06-08T22:45:26.498Z,13.10
2023-06-08T22:47:59.304Z,12.10
2023-06-08T22:50:34.253Z,13.30
2023-06-08T22:53:07.328Z,13.28
2023-06-08T22:55:38.584Z,14.50
2023-06-08T22:58:10.097Z,14.28
2023-06-08T23:00:42.622Z,13.68
2023-06-08T23:03:13.908Z,13.30
2023-06-08T23:05:45.387Z,13.40
2023-06-08T23:08:17.404Z,12.63
2023-06-08T23:10:49.301Z,13.55
2023-06-08T23:13:22.499Z,13.20
2023-06-08T23:15:55.254Z,13.03
2023-06-08T23:18:37.391Z,13.78
2023-06-08T23:21:08.858Z,14.43
2023-06-08T23:23:40.109Z,13.53
2023-06-08T23:26:11.949Z,13.35
2023-06-08T23:28:44.243Z,13.08
2023-06-08T23:31:16.403Z,12.30
2023-06-08T23:33:47.850Z,14.83
2023-06-08T23:36:19.181Z,13.05
2023-06-08T23:38:51.121Z,11.93
2023-06-08T23:41:23.796Z,14.50
2023-06-08T23:43:55.168Z,13.08
2023-06-08T23:46:26.752Z,13.55
2023-06-08T23:48:57.896Z,13.05
2023-06-08T23:51:29.117Z,11.80
2023-06-08T23:54:03.466Z,12.30
2023-06-08T23:56:34.573Z,11.18
2023-06-08T23:59:05.922Z,11.93
